Time;durP1;ratioP1;P1;durP2;ratioP2;P2;SDS_P1;SDS_P2;PMS_P1;PMS_P2;Temp;Humidity;BMP_temperature;BMP_pressure;BME280_temperature;BME280_humidity;BME280_pressure;Samples;Min_cycle;Max_cycle;Signal;HPM_P1;HPM_P2
2021/06/30 00:01:31;;;;;;;12.35;8.43;;;19.60;99.90;;;;;;4255874;27;20084;-73
2021/06/30 00:03:39;;;;;;;11.75;8.13;;;19.60;99.90;;;;;;4253888;27;20390;-73
2021/06/30 00:05:47;;;;;;;12.30;9.02;;;19.60;99.90;;;;;;4231578;27;20060;-73
2021/06/30 00:07:57;;;;;;;20.30;9.73;;;19.70;99.90;;;;;;4247450;27;20093;-73
2021/06/30 00:10:08;;;;;;;13.45;8.85;;;19.50;99.90;;;;;;4247810;27;20047;-74
2021/06/30 00:12:16;;;;;;;13.48;9.82;;;19.50;99.90;;;;;;4247626;27;20138;-73
2021/06/30 00:14:24;;;;;;;17.60;9.60;;;19.60;99.90;;;;;;4247769;27;20062;-74
2021/06/30 00:16:32;;;;;;;16.05;9.23;;;19.70;99.90;;;;;;4247760;27;20069;-71
2021/06/30 00:18:35;;;;;;;13.15;9.02;;;19.80;99.90;;;;;;4248056;27;20047;-75
2021/06/30 00:20:43;;;;;;;17.23;9.93;;;19.80;99.90;;;;;;4247550;27;20051;-71
2021/06/30 00:22:51;;;;;;;14.50;8.65;;;19.80;99.90;;;;;;4247755;27;20487;-72
2021/06/30 00:25:01;;;;;;;13.75;9.07;;;19.60;99.90;;;;;;4247530;27;20057;-73
2021/06/30 00:27:09;;;;;;;16.33;8.82;;;19.50;99.90;;;;;;4247776;27;20063;-73
2021/06/30 00:29:16;;;;;;;14.30;9.10;;;19.60;99.90;;;;;;4247620;27;20600;-73
2021/06/30 00:31:24;;;;;;;17.27;9.77;;;19.60;99.90;;;;;;4247689;27;20068;-74
2021/06/30 00:33:32;;;;;;;13.27;8.38;;;19.60;99.90;;;;;;4247242;27;20047;-73
2021/06/30 00:35:40;;;;;;;10.73;7.50;;;19.50;99.90;;;;;;4250130;27;20395;-73
2021/06/30 00:37:48;;;;;;;12.88;8.45;;;19.60;99.90;;;;;;4250062;27;20059;-75
2021/06/30 00:39:56;;;;;;;10.15;7.55;;;19.50;99.90;;;;;;4246608;27;20051;-72
2021/06/30 00:42:05;;;;;;;10.07;6.63;;;19.60;99.90;;;;;;4230561;27;20388;-72
2021/06/30 00:44:14;;;;;;;11.45;6.57;;;19.60;99.90;;;;;;4230819;27;20055;-74
2021/06/30 00:46:26;;;;;;;10.35;6.30;;;19.50;99.90;;;;;;4248162;27;20059;-74
2021/06/30 00:48:35;;;;;;;13.38;7.10;;;19.40;99.90;;;;;;4247632;27;20058;-74
2021/06/30 00:50:43;;;;;;;8.52;6.15;;;19.50;99.90;;;;;;4247487;27;20403;-73
2021/06/30 00:52:51;;;;;;;10.82;6.53;;;19.50;99.90;;;;;;4247964;27;20051;-72
2021/06/30 00:54:59;;;;;;;9.82;6.70;;;19.50;99.90;;;;;;4247117;27;20058;-73
2021/06/30 00:57:10;;;;;;;8.02;6.68;;;19.50;99.90;;;;;;4247100;27;20494;-74
2021/06/30 00:59:19;;;;;;;13.38;7.53;;;19.50;99.90;;;;;;4246829;27;20059;-73
2021/06/30 01:01:28;;;;;;;12.63;6.93;;;19.50;99.90;;;;;;4246650;27;20500;-75
2021/06/30 01:03:35;;;;;;;11.05;6.38;;;19.20;99.90;;;;;;4246620;27;20055;-72
2021/06/30 01:05:43;;;;;;;9.73;6.32;;;19.20;99.90;;;;;;4246896;27;20051;-74
2021/06/30 01:07:52;;;;;;;15.68;6.40;;;19.20;99.90;;;;;;4246684;27;20059;-73
2021/06/30 01:10:00;;;;;;;10.18;6.35;;;19.20;99.90;;;;;;4246121;27;20054;-73
2021/06/30 01:12:09;;;;;;;10.50;6.32;;;19.30;99.90;;;;;;4246561;27;20061;-71
2021/06/30 01:14:24;;;;;;;11.65;7.07;;;19.30;99.90;;;;;;4246807;27;20047;-75
2021/06/30 01:16:32;;;;;;;12.30;6.95;;;19.20;99.90;;;;;;4229278;27;20082;-75
2021/06/30 01:18:40;;;;;;;13.35;6.75;;;19.30;99.90;;;;;;4246716;27;20074;-74
2021/06/30 01:20:48;;;;;;;13.77;7.30;;;19.20;99.90;;;;;;4246509;27;20051;-75
2021/06/30 01:23:04;;;;;;;9.65;7.00;;;19.20;99.90;;;;;;4246312;27;20051;-73
2021/06/30 01:25:12;;;;;;;16.45;6.90;;;19.20;99.90;;;;;;4245872;27;20055;-74
2021/06/30 01:27:22;;;;;;;9.52;6.38;;;19.20;99.90;;;;;;4246058;27;20062;-74
2021/06/30 01:29:29;;;;;;;9.00;6.35;;;19.20;99.90;;;;;;4229133;27;20057;-74
2021/06/30 01:31:38;;;;;;;11.95;6.53;;;19.30;99.90;;;;;;4246178;27;20445;-74
2021/06/30 01:33:46;;;;;;;9.50;6.70;;;19.20;99.90;;;;;;4246152;27;20050;-74
2021/06/30 01:35:54;;;;;;;9.38;6.78;;;19.30;99.90;;;;;;4245934;27;20080;-73
2021/06/30 01:38:04;;;;;;;13.60;6.80;;;19.30;99.90;;;;;;4246011;27;20753;-73
2021/06/30 01:40:13;;;;;;;10.35;6.90;;;19.30;99.90;;;;;;4228624;27;20132;-72
2021/06/30 01:42:21;;;;;;;14.05;7.47;;;19.20;99.90;;;;;;4246018;27;20434;-73
2021/06/30 01:44:29;;;;;;;9.48;6.78;;;19.10;99.90;;;;;;4246064;27;20657;-73
2021/06/30 01:46:37;;;;;;;9.90;6.18;;;19.20;99.90;;;;;;4245743;27;20062;-73
2021/06/30 01:48:48;;;;;;;10.48;6.40;;;19.30;99.90;;;;;;4228849;28;20051;-73
2021/06/30 01:50:56;;;;;;;10.65;7.57;;;19.40;99.90;;;;;;4246651;27;20043;-72
2021/06/30 01:53:05;;;;;;;13.38;7.45;;;19.30;99.90;;;;;;4246834;27;20052;-75
2021/06/30 01:55:14;;;;;;;11.90;6.68;;;19.30;99.90;;;;;;4245828;28;20059;-73
2021/06/30 01:57:23;;;;;;;11.77;7.15;;;19.40;99.90;;;;;;4245485;28;20501;-73
2021/06/30 01:59:31;;;;;;;10.32;7.32;;;19.30;99.90;;;;;;4245744;28;20177;-74
2021/06/30 02:01:39;;;;;;;16.08;7.95;;;19.30;99.90;;;;;;4245990;28;20053;-73
2021/06/30 02:03:47;;;;;;;9.93;7.07;;;19.30;99.90;;;;;;4245891;28;20055;-72
2021/06/30 02:05:55;;;;;;;19.35;8.27;;;19.30;99.90;;;;;;4245937;28;20047;-72
2021/06/30 02:08:05;;;;;;;12.93;7.72;;;19.30;99.90;;;;;;4245696;28;20055;-72
2021/06/30 02:10:14;;;;;;;17.25;8.23;;;19.20;99.90;;;;;;4245575;28;20048;-72
2021/06/30 02:12:21;;;;;;;9.93;7.32;;;19.00;99.90;;;;;;4245494;28;20442;-73
2021/06/30 02:14:29;;;;;;;19.27;7.72;;;19.00;99.90;;;;;;4245427;28;20051;-71
2021/06/30 02:16:37;;;;;;;15.80;8.10;;;19.10;99.90;;;;;;4245710;28;20503;-72
2021/06/30 02:18:45;;;;;;;16.33;7.95;;;19.30;99.90;;;;;;4245575;28;20062;-73
2021/06/30 02:20:53;;;;;;;13.32;7.90;;;19.20;99.90;;;;;;4245736;28;20059;-73
2021/06/30 02:23:01;;;;;;;10.65;7.25;;;19.10;99.90;;;;;;4245320;28;20047;-73
2021/06/30 02:25:13;;;;;;;13.15;8.32;;;19.20;99.90;;;;;;4245436;28;20078;-72
2021/06/30 02:27:21;;;;;;;14.40;8.20;;;19.10;99.90;;;;;;4245424;28;20055;-73
2021/06/30 02:29:29;;;;;;;14.23;8.60;;;19.10;99.90;;;;;;4245380;28;20055;-73
2021/06/30 02:31:37;;;;;;;13.48;8.52;;;19.20;99.90;;;;;;4245572;28;20073;-73
2021/06/30 02:33:45;;;;;;;15.18;8.95;;;19.10;99.90;;;;;;4227907;28;20056;-72
2021/06/30 02:35:53;;;;;;;14.45;8.98;;;18.90;99.90;;;;;;4244778;28;20062;-70
2021/06/30 02:38:01;;;;;;;18.90;9.48;;;18.80;99.90;;;;;;4245803;28;20055;-73
2021/06/30 02:40:14;;;;;;;18.20;9.85;;;18.60;99.90;;;;;;4245134;28;20062;-73
2021/06/30 02:42:22;;;;;;;15.05;9.32;;;18.50;99.90;;;;;;4245389;28;20057;-72
2021/06/30 02:44:31;;;;;;;21.60;10.05;;;18.70;99.90;;;;;;4227932;28;20055;-73
2021/06/30 02:46:38;;;;;;;19.20;9.88;;;18.50;99.90;;;;;;4245541;28;20055;-72
2021/06/30 02:48:46;;;;;;;16.55;8.95;;;18.50;99.90;;;;;;4245603;28;20407;-73
2021/06/30 02:50:54;;;;;;;16.13;8.75;;;18.50;99.90;;;;;;4245425;28;20077;-71
2021/06/30 02:53:02;;;;;;;18.02;10.02;;;18.60;99.90;;;;;;4245281;28;20492;-72
2021/06/30 02:55:13;;;;;;;21.27;10.45;;;18.50;99.90;;;;;;4245631;28;20051;-73
2021/06/30 02:57:21;;;;;;;17.30;9.50;;;18.30;99.90;;;;;;4248115;28;20066;-73
2021/06/30 02:59:28;;;;;;;16.20;9.60;;;18.40;99.90;;;;;;4232743;28;20062;-72
2021/06/30 03:01:36;;;;;;;16.17;9.38;;;18.40;99.90;;;;;;4250632;27;20051;-73
2021/06/30 03:03:39;;;;;;;18.02;9.80;;;18.50;99.90;;;;;;4253199;27;20051;-73
2021/06/30 03:05:47;;;;;;;18.42;10.05;;;18.50;99.90;;;;;;4254034;27;20055;-72
2021/06/30 03:07:55;;;;;;;18.63;10.23;;;18.50;99.90;;;;;;4251857;27;20055;-73
2021/06/30 03:10:04;;;;;;;17.35;9.95;;;18.40;99.90;;;;;;4251172;27;20052;-73
2021/06/30 03:12:14;;;;;;;21.70;10.18;;;18.30;99.90;;;;;;4231026;27;20060;-72
2021/06/30 03:14:22;;;;;;;16.05;8.98;;;18.40;99.90;;;;;;4231041;27;20470;-72
2021/06/30 03:16:30;;;;;;;22.05;9.45;;;18.40;99.90;;;;;;4248333;27;20047;-72
2021/06/30 03:18:37;;;;;;;18.60;10.05;;;18.30;99.90;;;;;;4248765;27;20059;-73
2021/06/30 03:20:45;;;;;;;20.50;10.32;;;18.30;99.90;;;;;;4249438;27;20051;-73
2021/06/30 03:22:53;;;;;;;20.55;9.90;;;18.40;99.90;;;;;;4250704;27;20056;-73
2021/06/30 03:25:01;;;;;;;18.77;9.77;;;18.40;99.90;;;;;;4251776;27;20051;-74
2021/06/30 03:27:09;;;;;;;21.95;10.15;;;18.40;99.90;;;;;;4249044;27;20059;-74
2021/06/30 03:29:18;;;;;;;14.88;10.13;;;18.50;99.90;;;;;;4251845;27;20057;-73
2021/06/30 03:31:26;;;;;;;19.85;9.93;;;18.60;99.90;;;;;;4252040;27;20392;-73
2021/06/30 03:33:36;;;;;;;20.58;10.18;;;18.70;99.90;;;;;;4250696;27;20058;-74
2021/06/30 03:35:44;;;;;;;18.60;10.13;;;18.60;99.90;;;;;;4252003;27;20047;-73
2021/06/30 03:37:52;;;;;;;20.95;10.45;;;18.80;99.90;;;;;;4234230;27;20058;-73
2021/06/30 03:40:00;;;;;;;26.55;12.32;;;18.70;99.90;;;;;;4249584;27;20051;-72
2021/06/30 03:42:03;;;;;;;18.65;11.93;;;18.50;99.90;;;;;;4249184;27;20047;-75
2021/06/30 03:44:11;;;;;;;24.98;11.93;;;18.40;99.90;;;;;;4248695;27;20059;-75
2021/06/30 03:46:21;;;;;;;27.73;12.38;;;18.40;99.90;;;;;;4248669;27;20057;-74
2021/06/30 03:48:29;;;;;;;20.33;11.93;;;18.40;99.90;;;;;;4248675;27;20055;-73
2021/06/30 03:50:36;;;;;;;17.13;10.63;;;18.40;99.90;;;;;;4249675;27;20051;-73
2021/06/30 03:52:39;;;;;;;26.33;10.77;;;18.50;99.90;;;;;;4248824;27;20053;-73
2021/06/30 03:54:47;;;;;;;28.98;11.63;;;18.60;99.90;;;;;;4247840;27;20051;-73
2021/06/30 03:56:55;;;;;;;23.83;11.75;;;18.60;99.90;;;;;;4248179;27;20070;-74
2021/06/30 03:59:03;;;;;;;23.13;11.73;;;18.50;99.90;;;;;;4248586;27;20051;-75
2021/06/30 04:01:06;;;;;;;18.15;9.77;;;18.40;99.90;;;;;;4247860;27;20059;-72
2021/06/30 04:03:18;;;;;;;15.85;9.63;;;18.50;99.90;;;;;;4248938;27;20055;-74
2021/06/30 04:05:26;;;;;;;18.08;10.55;;;18.60;99.90;;;;;;4247927;27;20082;-72
2021/06/30 04:07:35;;;;;;;18.80;9.45;;;18.50;99.90;;;;;;4247359;27;20055;-73
2021/06/30 04:09:42;;;;;;;17.80;9.90;;;18.30;99.90;;;;;;4247430;27;20055;-74
2021/06/30 04:11:52;;;;;;;18.35;10.32;;;18.30;99.90;;;;;;4247386;27;20062;-73
2021/06/30 04:14:00;;;;;;;18.63;9.43;;;18.40;99.90;;;;;;4230571;27;20066;-74
2021/06/30 04:16:08;;;;;;;25.63;9.65;;;18.40;99.90;;;;;;4249687;27;20066;-73
2021/06/30 04:18:17;;;;;;;18.13;9.32;;;18.30;99.90;;;;;;4248636;27;20528;-74
2021/06/30 04:20:26;;;;;;;17.50;8.75;;;18.30;99.90;;;;;;4249320;27;20057;-74
2021/06/30 04:22:35;;;;;;;20.10;8.27;;;18.40;99.90;;;;;;4249341;27;20051;-75
2021/06/30 04:24:42;;;;;;;16.23;8.55;;;18.50;99.90;;;;;;4249864;27;20058;-74
2021/06/30 04:26:50;;;;;;;17.63;8.63;;;18.50;99.90;;;;;;4249253;27;20522;-72
2021/06/30 04:28:58;;;;;;;17.23;8.63;;;18.60;99.90;;;;;;4248456;27;20054;-74
2021/06/30 04:31:06;;;;;;;22.30;9.60;;;18.60;99.90;;;;;;4249372;27;20061;-72
2021/06/30 04:33:14;;;;;;;17.20;8.35;;;18.80;99.90;;;;;;4248761;27;20058;-72
2021/06/30 04:35:23;;;;;;;15.65;8.30;;;18.70;99.90;;;;;;4248928;27;20057;-75
2021/06/30 04:37:31;;;;;;;18.30;9.77;;;18.60;99.90;;;;;;4247743;27;20047;-73
2021/06/30 04:39:39;;;;;;;15.73;7.75;;;18.60;99.90;;;;;;4249062;27;20070;-74
2021/06/30 04:41:47;;;;;;;15.77;7.88;;;18.60;99.90;;;;;;4248276;27;20062;-73
2021/06/30 04:43:55;;;;;;;14.77;8.07;;;18.60;99.90;;;;;;4247722;27;20055;-73
2021/06/30 04:46:03;;;;;;;17.80;7.35;;;18.80;99.90;;;;;;4247683;27;20059;-73
2021/06/30 04:48:11;;;;;;;18.15;7.78;;;18.90;99.90;;;;;;4247311;27;20507;-73
2021/06/30 04:50:19;;;;;;;16.17;8.65;;;18.60;99.90;;;;;;4247600;27;20320;-73
2021/06/30 04:52:28;;;;;;;18.35;8.60;;;18.50;99.90;;;;;;4230622;28;20055;-73
2021/06/30 04:54:36;;;;;;;11.82;7.47;;;18.50;99.90;;;;;;4229786;28;20474;-74
2021/06/30 04:56:44;;;;;;;16.33;8.38;;;18.60;99.90;;;;;;4212759;28;20051;-72
2021/06/30 04:58:53;;;;;;;22.77;9.25;;;18.60;99.90;;;;;;4230231;28;20062;-73
2021/06/30 05:01:00;;;;;;;16.00;6.95;;;18.50;99.90;;;;;;4229836;28;20058;-73
2021/06/30 05:03:08;;;;;;;19.95;7.65;;;18.50;99.90;;;;;;4230527;28;20078;-73
2021/06/30 05:05:17;;;;;;;19.15;7.95;;;18.50;99.90;;;;;;4229590;28;20062;-73
2021/06/30 05:07:25;;;;;;;15.57;7.80;;;18.60;99.90;;;;;;4229092;28;20048;-72
2021/06/30 05:09:29;;;;;;;12.80;7.22;;;18.50;99.90;;;;;;4229676;28;20047;-74
2021/06/30 05:11:37;;;;;;;13.05;7.65;;;18.70;99.90;;;;;;4229512;28;20051;-74
2021/06/30 05:13:45;;;;;;;11.93;6.60;;;18.60;99.90;;;;;;4229371;28;20454;-73
2021/06/30 05:15:53;;;;;;;18.92;6.72;;;18.70;99.90;;;;;;4243506;27;20047;-73
2021/06/30 05:18:01;;;;;;;16.48;7.35;;;18.60;99.90;;;;;;4246279;27;20077;-75
2021/06/30 05:20:10;;;;;;;12.88;7.57;;;18.60;99.90;;;;;;4246813;27;20061;-73
2021/06/30 05:22:18;;;;;;;20.38;7.15;;;18.50;99.90;;;;;;4246824;27;20054;-73
2021/06/30 05:24:26;;;;;;;13.30;6.55;;;18.50;99.90;;;;;;4246626;27;20047;-73
2021/06/30 05:26:35;;;;;;;10.93;6.93;;;18.70;99.90;;;;;;4245984;27;20054;-72
2021/06/30 05:28:44;;;;;;;12.30;7.35;;;18.60;99.90;;;;;;4246375;27;20055;-72
2021/06/30 05:30:51;;;;;;;15.80;6.38;;;18.70;99.90;;;;;;4246477;27;20433;-73
2021/06/30 05:32:59;;;;;;;12.75;6.72;;;18.70;99.90;;;;;;4246432;27;20083;-72
2021/06/30 05:35:08;;;;;;;14.18;6.57;;;18.60;99.90;;;;;;4247110;27;20087;-73
2021/06/30 05:37:16;;;;;;;10.07;6.70;;;18.50;99.90;;;;;;4249484;27;20047;-74
2021/06/30 05:39:24;;;;;;;17.45;6.82;;;18.50;99.90;;;;;;4250992;27;20055;-73
2021/06/30 05:41:32;;;;;;;13.25;7.10;;;18.10;99.90;;;;;;4248822;27;20055;-74
2021/06/30 05:43:41;;;;;;;9.68;5.95;;;18.00;99.90;;;;;;4229631;28;20051;-73
2021/06/30 05:45:49;;;;;;;16.95;6.50;;;18.00;99.90;;;;;;4246578;27;20063;-72
2021/06/30 05:47:52;;;;;;;10.65;6.80;;;18.10;99.90;;;;;;4246228;27;20411;-71
2021/06/30 05:50:00;;;;;;;12.02;6.45;;;18.10;99.90;;;;;;4246544;27;20050;-72
2021/06/30 05:52:08;;;;;;;26.23;7.85;;;18.10;99.90;;;;;;4246032;27;20134;-72
2021/06/30 05:54:16;;;;;;;14.30;7.75;;;18.10;99.90;;;;;;4245989;27;20051;-73
2021/06/30 05:56:24;;;;;;;14.38;7.88;;;18.20;99.90;;;;;;4246111;27;20055;-72
2021/06/30 05:58:32;;;;;;;10.85;7.03;;;18.00;99.90;;;;;;4246009;28;20385;-72
2021/06/30 06:00:42;;;;;;;11.63;6.43;;;18.10;99.90;;;;;;4247596;28;20059;-73
2021/06/30 06:02:50;;;;;;;12.80;6.00;;;18.10;99.90;;;;;;4250926;28;20059;-72
2021/06/30 06:04:58;;;;;;;13.18;5.15;;;18.30;99.90;;;;;;4250191;28;20059;-72
2021/06/30 06:07:06;;;;;;;10.20;6.18;;;18.30;99.90;;;;;;4246775;28;20058;-73
2021/06/30 06:09:14;;;;;;;8.15;5.63;;;18.20;99.90;;;;;;4248921;28;20061;-73
2021/06/30 06:11:22;;;;;;;8.45;6.45;;;18.20;99.90;;;;;;4250779;28;20051;-73
2021/06/30 06:13:30;;;;;;;9.10;5.55;;;18.10;99.90;;;;;;4230029;28;20070;-72
2021/06/30 06:15:38;;;;;;;9.88;5.30;;;18.20;99.90;;;;;;4246540;28;20062;-72
2021/06/30 06:17:47;;;;;;;8.00;5.95;;;18.20;99.90;;;;;;4248523;28;20055;-73
2021/06/30 06:19:55;;;;;;;11.13;5.95;;;18.20;99.90;;;;;;4249800;28;20051;-72
2021/06/30 06:22:05;;;;;;;8.70;5.25;;;18.20;99.90;;;;;;4250193;28;20084;-72
2021/06/30 06:24:13;;;;;;;6.78;4.82;;;18.10;99.90;;;;;;4249569;28;20051;-73
2021/06/30 06:26:21;;;;;;;5.63;4.80;;;18.00;99.90;;;;;;4246493;28;20132;-72
2021/06/30 06:28:33;;;;;;;8.55;5.10;;;18.10;99.90;;;;;;4247187;28;20055;-72
2021/06/30 06:30:41;;;;;;;10.25;6.10;;;18.10;99.90;;;;;;4246864;28;20422;-73
2021/06/30 06:32:50;;;;;;;11.02;5.30;;;18.00;99.90;;;;;;4245308;28;20058;-73
2021/06/30 06:34:58;;;;;;;11.10;5.78;;;17.90;99.90;;;;;;4245634;28;20047;-74
2021/06/30 06:37:11;;;;;;;10.60;5.43;;;18.00;99.90;;;;;;4246250;27;20492;-73
2021/06/30 06:39:21;;;;;;;9.52;5.60;;;18.10;99.90;;;;;;4249120;27;20423;-72
2021/06/30 06:41:29;;;;;;;8.38;5.82;;;18.20;99.90;;;;;;4231977;27;20164;-73
2021/06/30 06:43:38;;;;;;;9.10;6.53;;;18.20;99.90;;;;;;4249751;27;20062;-71
2021/06/30 06:45:45;;;;;;;8.75;6.30;;;18.30;99.90;;;;;;4249284;27;20051;-72
2021/06/30 06:47:55;;;;;;;11.60;5.93;;;18.20;99.90;;;;;;4249583;27;20051;-73
2021/06/30 06:50:04;;;;;;;8.77;6.38;;;18.20;99.90;;;;;;4248798;27;20419;-73
2021/06/30 06:52:12;;;;;;;10.45;6.30;;;18.30;99.90;;;;;;4232176;27;20066;-72
2021/06/30 06:54:20;;;;;;;8.77;5.85;;;18.30;99.90;;;;;;4249840;27;20660;-72
2021/06/30 06:56:26;;;;;;;7.80;5.60;;;18.40;99.90;;;;;;4251583;27;20065;-73
2021/06/30 06:58:34;;;;;;;7.00;5.72;;;18.40;99.90;;;;;;4251461;27;20070;-75
2021/06/30 07:00:42;;;;;;;7.90;6.43;;;18.40;99.90;;;;;;4250384;27;20059;-74
2021/06/30 07:02:50;;;;;;;8.77;6.30;;;18.30;99.90;;;;;;4249791;27;20404;-73
2021/06/30 07:04:58;;;;;;;9.93;5.68;;;18.30;99.90;;;;;;4249596;27;20528;-73
2021/06/30 07:07:07;;;;;;;12.70;6.70;;;18.40;99.90;;;;;;4253718;27;20043;-73
2021/06/30 07:09:15;;;;;;;14.13;6.88;;;18.30;99.90;;;;;;4252120;27;20055;-73
2021/06/30 07:11:23;;;;;;;13.40;6.53;;;18.20;99.90;;;;;;4249707;27;20061;-72
2021/06/30 07:13:31;;;;;;;13.15;7.03;;;18.20;99.90;;;;;;4251618;27;20057;-72
2021/06/30 07:15:41;;;;;;;12.80;6.85;;;18.30;99.90;;;;;;4255497;27;20051;-74
2021/06/30 07:17:49;;;;;;;11.30;6.60;;;18.40;99.90;;;;;;4250394;27;20051;-73
2021/06/30 07:19:58;;;;;;;7.72;6.18;;;18.50;99.90;;;;;;4250718;27;20059;-72
2021/06/30 07:22:06;;;;;;;14.02;6.13;;;18.50;99.90;;;;;;4249756;27;20051;-73
2021/06/30 07:24:14;;;;;;;12.00;6.90;;;18.60;99.90;;;;;;4249848;27;20061;-73
2021/06/30 07:26:23;;;;;;;13.10;6.55;;;18.40;99.90;;;;;;4250734;27;20059;-74
2021/06/30 07:28:31;;;;;;;8.85;6.10;;;18.40;99.90;;;;;;4249338;27;20055;-72
2021/06/30 07:30:39;;;;;;;9.57;6.18;;;18.30;99.90;;;;;;4248532;27;20051;-73
2021/06/30 07:32:47;;;;;;;10.35;6.22;;;18.30;99.90;;;;;;4248854;27;20089;-74
2021/06/30 07:34:55;;;;;;;10.13;6.30;;;18.40;99.90;;;;;;4249076;27;20043;-75
2021/06/30 07:37:04;;;;;;;11.75;6.25;;;18.40;99.90;;;;;;4248554;27;20059;-73
2021/06/30 07:39:12;;;;;;;14.88;6.25;;;18.40;99.90;;;;;;4248488;27;20062;-74
2021/06/30 07:41:20;;;;;;;11.30;6.38;;;18.50;99.90;;;;;;4248812;27;20069;-74
2021/06/30 07:43:28;;;;;;;11.18;7.15;;;18.70;99.90;;;;;;4247255;27;20610;-74
2021/06/30 07:45:32;;;;;;;13.20;7.25;;;18.80;99.90;;;;;;4247935;27;20630;-72
2021/06/30 07:47:36;;;;;;;15.35;7.13;;;18.80;99.90;;;;;;4248161;27;20051;-73
2021/06/30 07:49:39;;;;;;;13.55;6.82;;;18.90;99.90;;;;;;4247229;27;20051;-73
2021/06/30 07:51:42;;;;;;;10.82;7.00;;;19.00;99.90;;;;;;4249117;27;20139;-73
2021/06/30 07:53:47;;;;;;;15.57;7.35;;;19.00;99.90;;;;;;4249133;27;20077;-72
2021/06/30 07:55:50;;;;;;;14.73;7.25;;;19.10;99.90;;;;;;4248621;27;20158;-71
2021/06/30 07:57:54;;;;;;;16.25;7.38;;;19.20;99.90;;;;;;4248250;27;20052;-72
2021/06/30 07:59:57;;;;;;;11.40;6.75;;;19.30;99.90;;;;;;4242145;27;20052;-72
2021/06/30 08:02:00;;;;;;;11.18;6.03;;;19.40;99.90;;;;;;4238998;27;20047;-72
2021/06/30 08:04:05;;;;;;;11.38;7.18;;;19.50;99.90;;;;;;4246778;27;20050;-72
2021/06/30 08:06:08;;;;;;;12.98;6.95;;;19.70;99.90;;;;;;4247503;27;20090;-71
2021/06/30 08:08:12;;;;;;;12.15;7.53;;;19.50;99.90;;;;;;4250519;27;20430;-75
2021/06/30 08:10:16;;;;;;;10.23;6.25;;;19.50;99.90;;;;;;4248962;27;20533;-76
2021/06/30 08:12:19;;;;;;;14.50;6.10;;;19.70;99.90;;;;;;4249750;27;20043;-76
2021/06/30 08:14:22;;;;;;;14.43;6.53;;;19.90;99.90;;;;;;4244663;27;20054;-73
2021/06/30 08:16:25;;;;;;;11.55;6.25;;;19.90;99.90;;;;;;4227900;28;20508;-73
2021/06/30 08:18:28;;;;;;;15.65;6.88;;;19.90;99.90;;;;;;4245627;27;20043;-75
2021/06/30 08:20:32;;;;;;;22.15;6.57;;;19.90;99.90;;;;;;4245696;27;20055;-73
2021/06/30 08:22:35;;;;;;;15.13;6.40;;;19.80;99.90;;;;;;4245663;27;20122;-74
2021/06/30 08:24:46;;;;;;;16.83;6.45;;;19.90;99.90;;;;;;4244292;27;20047;-74
2021/06/30 08:26:50;;;;;;;9.60;5.80;;;20.00;99.90;;;;;;4245586;27;20063;-74
2021/06/30 08:28:54;;;;;;;12.43;6.05;;;19.90;99.90;;;;;;4245493;27;20067;-75
2021/06/30 08:30:58;;;;;;;12.07;5.55;;;20.00;99.90;;;;;;4243005;27;20047;-73
2021/06/30 08:33:01;;;;;;;13.38;6.15;;;20.10;99.90;;;;;;4245574;27;20047;-72
2021/06/30 08:35:05;;;;;;;10.82;6.07;;;20.20;99.90;;;;;;4227868;28;20082;-73
2021/06/30 08:37:09;;;;;;;13.50;6.17;;;20.30;99.90;;;;;;4246296;27;20051;-75
2021/06/30 08:39:12;;;;;;;14.77;6.10;;;20.30;99.90;;;;;;4246804;27;20570;-78
2021/06/30 08:41:17;;;;;;;13.30;6.35;;;20.40;99.90;;;;;;4246208;27;20058;-76
2021/06/30 08:43:21;;;;;;;;;;;20.30;99.90;;;;;;4226974;28;20091;-78
2021/06/30 08:45:25;;;;;;;10.40;5.63;;;20.30;99.90;;;;;;4245072;27;19923;-78
2021/06/30 08:47:34;;;;;;;10.85;6.20;;;20.30;99.90;;;;;;4246741;27;20408;-76
2021/06/30 08:49:42;;;;;;;7.38;5.10;;;20.30;99.90;;;;;;4246190;27;20159;-75
2021/06/30 08:51:49;;;;;;;11.63;5.55;;;20.40;99.90;;;;;;4246417;27;20145;-74
2021/06/30 08:53:54;;;;;;;12.02;5.13;;;20.20;99.90;;;;;;4228878;28;20627;-76
2021/06/30 08:55:58;;;;;;;14.93;6.15;;;20.30;99.90;;;;;;4226106;28;20432;-76
2021/06/30 08:58:01;;;;;;;8.70;5.35;;;20.40;99.90;;;;;;4229585;28;20047;-75
2021/06/30 09:00:08;;;;;;;9.85;5.93;;;20.40;99.90;;;;;;4229625;27;20131;-76
2021/06/30 09:02:11;;;;;;;14.90;7.00;;;20.50;99.90;;;;;;4230770;28;20072;-76
2021/06/30 09:04:14;;;;;;;15.88;6.05;;;20.00;99.90;;;;;;4229551;27;20431;-77
2021/06/30 09:06:18;;;;;;;15.38;6.65;;;19.90;99.90;;;;;;4226429;28;20047;-74
2021/06/30 09:08:21;;;;;;;15.98;7.00;;;20.00;99.90;;;;;;4229756;28;20047;-75
2021/06/30 09:10:32;;;;;;;9.35;6.22;;;20.20;99.90;;;;;;4227403;28;20730;-75
2021/06/30 09:12:37;;;;;;;11.23;6.28;;;20.20;99.90;;;;;;4228728;27;20051;-77
2021/06/30 09:14:41;;;;;;;13.63;5.93;;;20.40;99.90;;;;;;4222563;28;20539;-75
2021/06/30 09:16:53;;;;;;;11.70;5.85;;;20.40;99.90;;;;;;4233138;28;20057;-75
2021/06/30 09:18:56;;;;;;;13.00;6.60;;;20.30;99.90;;;;;;4235660;28;20066;-80
2021/06/30 09:21:16;;;;;;;10.07;6.35;;;20.40;99.90;;;;;;4237609;28;20066;-80
2021/06/30 09:23:19;;;;;;;13.10;5.65;;;20.30;99.90;;;;;;4237117;28;20131;-76
2021/06/30 09:25:28;;;;;;;12.48;5.93;;;20.40;99.90;;;;;;4239886;28;20062;-78
2021/06/30 09:27:44;;;;;;;9.27;6.43;;;20.40;99.90;;;;;;4237363;28;20039;-74
2021/06/30 09:30:01;;;;;;;;;;;20.60;99.90;;;;;;4235683;28;20048;-78
2021/06/30 09:32:10;;;;;;;10.68;6.20;;;20.60;99.90;;;;;;4232929;28;19923;-77
2021/06/30 09:34:18;;;;;;;11.15;6.60;;;20.60;99.90;;;;;;4236351;28;20139;-74
2021/06/30 09:36:22;;;;;;;9.85;7.05;;;20.70;99.90;;;;;;4237688;28;20056;-76
2021/06/30 09:38:30;;;;;;;12.00;6.70;;;20.80;99.90;;;;;;4233321;28;20048;-76
2021/06/30 09:40:42;;;;;;;9.00;5.85;;;20.70;99.90;;;;;;4226531;28;20062;-78
2021/06/30 09:42:45;;;;;;;12.45;7.05;;;20.50;99.90;;;;;;4231341;28;20138;-76
2021/06/30 09:44:49;;;;;;;11.88;6.10;;;20.40;99.90;;;;;;4237524;28;20112;-77
2021/06/30 09:46:55;;;;;;;9.63;5.63;;;20.50;99.90;;;;;;4237838;28;20055;-72
2021/06/30 09:49:01;;;;;;;11.73;6.78;;;20.40;99.90;;;;;;4240624;28;20047;-75
2021/06/30 09:51:06;;;;;;;11.88;5.88;;;20.70;99.90;;;;;;4240633;28;20142;-77
2021/06/30 09:53:09;;;;;;;11.82;6.18;;;20.60;99.30;;;;;;4235784;28;20051;-76
2021/06/30 09:55:23;;;;;;;10.50;6.10;;;20.60;99.60;;;;;;4229153;28;20131;-76
2021/06/30 09:57:38;;;;;;;12.63;5.45;;;20.30;98.60;;;;;;4231757;28;20506;-74
2021/06/30 09:59:42;;;;;;;7.23;5.40;;;20.20;98.70;;;;;;4229525;28;20074;-73
2021/06/30 10:01:55;;;;;;;7.78;5.90;;;20.10;99.70;;;;;;4230241;28;20053;-75
2021/06/30 10:04:00;;;;;;;9.02;6.05;;;20.20;99.90;;;;;;4228565;28;20050;-76
2021/06/30 10:06:25;;;;;;;7.78;6.00;;;20.40;99.90;;;;;;4229084;28;20044;-77
2021/06/30 10:08:38;;;;;;;11.77;6.45;;;20.40;99.90;;;;;;4229334;28;20052;-74
2021/06/30 10:10:48;;;;;;;10.57;6.40;;;20.60;99.90;;;;;;4229518;28;20085;-72
2021/06/30 10:12:52;;;;;;;9.43;6.47;;;20.70;99.90;;;;;;4232902;28;20061;-76
2021/06/30 10:14:56;;;;;;;9.40;5.85;;;20.60;99.90;;;;;;4226682;28;20048;-75
2021/06/30 10:17:00;;;;;;;8.73;6.35;;;20.80;99.90;;;;;;4219168;28;20062;-74
2021/06/30 10:19:05;;;;;;;11.10;5.87;;;20.80;99.90;;;;;;4218522;28;20060;-75
2021/06/30 10:21:10;;;;;;;13.82;6.22;;;20.70;99.60;;;;;;4216994;28;20072;-78
2021/06/30 10:23:13;;;;;;;9.40;6.32;;;20.60;99.20;;;;;;4220104;28;20068;-74
2021/06/30 10:25:17;;;;;;;12.02;6.13;;;20.60;99.90;;;;;;4231825;28;20047;-72
2021/06/30 10:27:21;;;;;;;8.40;5.93;;;20.80;99.70;;;;;;4234588;28;20448;-76
2021/06/30 10:29:26;;;;;;;12.82;9.18;;;20.80;99.10;;;;;;4237782;28;20142;-73
2021/06/30 10:31:34;;;;;;;10.50;6.65;;;20.70;99.50;;;;;;4238945;28;20524;-74
2021/06/30 10:33:39;;;;;;;13.23;8.00;;;20.70;99.30;;;;;;4235073;28;20051;-76
2021/06/30 10:35:47;;;;;;;9.10;6.32;;;21.00;99.80;;;;;;4233632;28;20072;-76
2021/06/30 10:37:51;;;;;;;11.50;6.45;;;20.80;99.00;;;;;;4220656;27;20048;-72
2021/06/30 10:39:56;;;;;;;10.00;6.50;;;20.80;98.90;;;;;;4226804;28;20035;-73
2021/06/30 10:42:15;;;;;;;11.13;6.40;;;20.70;99.60;;;;;;4236283;28;20060;-76
2021/06/30 10:44:21;;;;;;;7.65;6.18;;;20.70;99.70;;;;;;4232004;28;20426;-76
2021/06/30 10:46:25;;;;;;;9.68;6.20;;;21.00;99.10;;;;;;4236165;28;20052;-77
2021/06/30 10:48:28;;;;;;;14.93;9.65;;;21.10;99.40;;;;;;4232756;28;20380;-74
2021/06/30 10:50:54;;;;;;;9.18;6.25;;;21.20;99.30;;;;;;4230538;28;20088;-75
2021/06/30 10:53:34;;;;;;;11.00;6.72;;;21.20;98.60;;;;;;4229252;28;20118;-74
2021/06/30 10:55:53;;;;;;;10.20;6.65;;;21.20;98.50;;;;;;4228862;28;20051;-74
2021/06/30 10:58:15;;;;;;;11.82;6.15;;;21.30;98.30;;;;;;4230949;28;20521;-75